sensor_id;sensor_type;location;lat;lon;timestamp;pressure;altitude;pressure_sealevel;temperature;humidity
10470;BME280;5282;47.052;15.458;2022-07-26T00:00:43;97011.16;;;25.39;100.00
10470;BME280;5282;47.052;15.458;2022-07-26T00:03:10;96996.03;;;25.42;100.00
10470;BME280;5282;47.052;15.458;2022-07-26T00:05:39;96993.28;;;25.42;100.00
10470;BME280;5282;47.052;15.458;2022-07-26T00:08:07;96989.41;;;25.48;100.00
10470;BME280;5282;47.052;15.458;2022-07-26T00:10:42;96980.03;;;25.54;98.53
10470;BME280;5282;47.052;15.458;2022-07-26T00:13:10;96987.75;;;25.52;98.01
10470;BME280;5282;47.052;15.458;2022-07-26T00:15:38;97004.59;;;25.40;100.00
10470;BME280;5282;47.052;15.458;2022-07-26T00:18:05;96997.66;;;25.38;94.13
10470;BME280;5282;47.052;15.458;2022-07-26T00:20:33;96998.78;;;25.42;76.25
10470;BME280;5282;47.052;15.458;2022-07-26T00:23:01;96997.94;;;25.62;69.82
10470;BME280;5282;47.052;15.458;2022-07-26T00:25:29;96995.44;;;25.71;69.57
10470;BME280;5282;47.052;15.458;2022-07-26T00:27:56;96991.56;;;25.72;68.17
10470;BME280;5282;47.052;15.458;2022-07-26T00:30:25;96985.50;;;25.75;66.95
10470;BME280;5282;47.052;15.458;2022-07-26T00:32:55;96987.69;;;25.73;66.84
10470;BME280;5282;47.052;15.458;2022-07-26T00:35:22;96979.19;;;25.75;65.85
10470;BME280;5282;47.052;15.458;2022-07-26T00:37:49;96984.72;;;25.64;65.35
10470;BME280;5282;47.052;15.458;2022-07-26T00:40:18;96987.47;;;25.59;65.76
10470;BME280;5282;47.052;15.458;2022-07-26T00:42:45;96981.16;;;25.59;65.91
10470;BME280;5282;47.052;15.458;2022-07-26T00:45:13;96980.03;;;25.34;66.63
10470;BME280;5282;47.052;15.458;2022-07-26T00:47:41;96981.13;;;25.07;68.33
10470;BME280;5282;47.052;15.458;2022-07-26T00:50:10;96978.94;;;25.04;69.73
10470;BME280;5282;47.052;15.458;2022-07-26T00:52:40;96972.88;;;25.12;71.01
10470;BME280;5282;47.052;15.458;2022-07-26T00:55:08;96971.78;;;25.18;71.89
10470;BME280;5282;47.052;15.458;2022-07-26T00:57:37;96973.16;;;25.26;76.40
10470;BME280;5282;47.052;15.458;2022-07-26T01:00:07;96967.38;;;25.17;76.23
10470;BME280;5282;47.052;15.458;2022-07-26T01:02:34;96951.94;;;25.16;83.25
10470;BME280;5282;47.052;15.458;2022-07-26T01:05:01;96956.09;;;25.19;86.75
10470;BME280;5282;47.052;15.458;2022-07-26T01:07:35;96956.91;;;25.14;89.44
10470;BME280;5282;47.052;15.458;2022-07-26T01:10:04;96948.91;;;25.13;90.27
10470;BME280;5282;47.052;15.458;2022-07-26T01:12:32;96939.28;;;25.15;91.13
10470;BME280;5282;47.052;15.458;2022-07-26T01:15:00;96943.69;;;25.21;90.62
10470;BME280;5282;47.052;15.458;2022-07-26T01:17:27;96939.25;;;25.25;91.22
10470;BME280;5282;47.052;15.458;2022-07-26T01:19:55;96941.47;;;25.18;92.14
10470;BME280;5282;47.052;15.458;2022-07-26T01:22:23;96939.00;;;25.27;91.86
10470;BME280;5282;47.052;15.458;2022-07-26T01:24:50;96941.50;;;25.08;90.96
10470;BME280;5282;47.052;15.458;2022-07-26T01:27:18;96944.81;;;24.89;92.02
10470;BME280;5282;47.052;15.458;2022-07-26T01:29:45;96941.75;;;24.70;92.04
10470;BME280;5282;47.052;15.458;2022-07-26T01:32:12;96941.44;;;24.61;93.04
10470;BME280;5282;47.052;15.458;2022-07-26T01:34:40;96949.13;;;24.59;94.89
10470;BME280;5282;47.052;15.458;2022-07-26T01:37:07;96938.09;;;24.49;92.38
10470;BME280;5282;47.052;15.458;2022-07-26T01:39:35;96930.69;;;24.44;87.99
10470;BME280;5282;47.052;15.458;2022-07-26T01:42:02;96927.09;;;24.39;87.01
10470;BME280;5282;47.052;15.458;2022-07-26T01:44:33;96925.97;;;24.34;88.69
10470;BME280;5282;47.052;15.458;2022-07-26T01:47:01;96927.88;;;24.29;89.96
10470;BME280;5282;47.052;15.458;2022-07-26T01:49:27;96925.63;;;24.10;100.00
10470;BME280;5282;47.052;15.458;2022-07-26T01:51:55;96932.50;;;24.13;100.00
10470;BME280;5282;47.052;15.458;2022-07-26T01:54:22;96921.53;;;24.18;100.00
10470;BME280;5282;47.052;15.458;2022-07-26T01:56:51;96926.41;;;24.00;100.00
10470;BME280;5282;47.052;15.458;2022-07-26T01:59:19;96921.94;;;23.84;100.00
10470;BME280;5282;47.052;15.458;2022-07-26T02:01:46;96930.97;;;23.74;100.00
10470;BME280;5282;47.052;15.458;2022-07-26T02:04:13;96934.19;;;23.55;100.00
10470;BME280;5282;47.052;15.458;2022-07-26T02:06:54;96933.97;;;23.24;100.00
10470;BME280;5282;47.052;15.458;2022-07-26T02:09:21;96939.34;;;23.09;99.66
10470;BME280;5282;47.052;15.458;2022-07-26T02:11:48;96941.28;;;23.14;100.00
10470;BME280;5282;47.052;15.458;2022-07-26T02:14:16;96935.91;;;23.24;100.00
10470;BME280;5282;47.052;15.458;2022-07-26T02:16:44;96935.31;;;23.22;100.00
10470;BME280;5282;47.052;15.458;2022-07-26T02:19:11;96932.91;;;23.31;94.63
10470;BME280;5282;47.052;15.458;2022-07-26T02:21:39;96921.66;;;23.27;92.56
10470;BME280;5282;47.052;15.458;2022-07-26T02:24:08;96931.31;;;23.35;89.65
10470;BME280;5282;47.052;15.458;2022-07-26T02:26:36;96939.56;;;23.40;90.20
10470;BME280;5282;47.052;15.458;2022-07-26T02:29:03;96937.69;;;23.46;96.37
10470;BME280;5282;47.052;15.458;2022-07-26T02:31:33;96924.53;;;23.53;86.60
10470;BME280;5282;47.052;15.458;2022-07-26T02:34:02;96938.56;;;23.56;83.18
10470;BME280;5282;47.052;15.458;2022-07-26T02:36:31;96941.91;;;23.64;81.55
10470;BME280;5282;47.052;15.458;2022-07-26T02:38:59;96935.03;;;23.66;83.65
10470;BME280;5282;47.052;15.458;2022-07-26T02:41:26;96943.03;;;23.73;78.63
10470;BME280;5282;47.052;15.458;2022-07-26T02:43:53;96942.50;;;23.76;81.27
10470;BME280;5282;47.052;15.458;2022-07-26T02:46:20;96931.25;;;23.72;76.89
10470;BME280;5282;47.052;15.458;2022-07-26T02:48:48;96938.41;;;23.79;79.22
10470;BME280;5282;47.052;15.458;2022-07-26T02:51:16;96932.94;;;23.89;80.37
10470;BME280;5282;47.052;15.458;2022-07-26T02:53:43;96926.91;;;23.87;74.92
10470;BME280;5282;47.052;15.458;2022-07-26T02:56:12;96931.28;;;23.88;77.61
10470;BME280;5282;47.052;15.458;2022-07-26T02:58:38;96918.09;;;23.85;75.18
10470;BME280;5282;47.052;15.458;2022-07-26T03:01:07;96923.66;;;23.95;72.53
10470;BME280;5282;47.052;15.458;2022-07-26T03:03:34;96917.38;;;24.00;71.15
10470;BME280;5282;47.052;15.458;2022-07-26T03:06:03;96918.09;;;23.90;69.01
10470;BME280;5282;47.052;15.458;2022-07-26T03:08:30;96925.31;;;23.96;74.19
10470;BME280;5282;47.052;15.458;2022-07-26T03:10:58;96925.31;;;23.96;74.18
10470;BME280;5282;47.052;15.458;2022-07-26T03:13:28;96932.97;;;23.94;74.03
10470;BME280;5282;47.052;15.458;2022-07-26T03:15:55;96935.47;;;23.96;70.56
10470;BME280;5282;47.052;15.458;2022-07-26T03:18:23;96930.81;;;23.96;69.75
10470;BME280;5282;47.052;15.458;2022-07-26T03:20:50;96924.00;;;24.09;68.23
10470;BME280;5282;47.052;15.458;2022-07-26T03:23:19;96933.06;;;24.15;70.75
10470;BME280;5282;47.052;15.458;2022-07-26T03:25:47;96955.84;;;24.05;70.61
10470;BME280;5282;47.052;15.458;2022-07-26T03:28:17;96950.09;;;24.07;67.33
10470;BME280;5282;47.052;15.458;2022-07-26T03:30:44;96960.81;;;24.03;70.14
10470;BME280;5282;47.052;15.458;2022-07-26T03:33:10;96967.13;;;23.98;69.81
10470;BME280;5282;47.052;15.458;2022-07-26T03:35:38;96968.69;;;23.89;67.55
10470;BME280;5282;47.052;15.458;2022-07-26T03:38:05;96976.91;;;23.84;67.90
10470;BME280;5282;47.052;15.458;2022-07-26T03:40:35;96978.13;;;23.98;68.35
10470;BME280;5282;47.052;15.458;2022-07-26T03:43:01;96983.63;;;24.03;69.37
10470;BME280;5282;47.052;15.458;2022-07-26T03:45:29;96988.84;;;24.00;70.14
10470;BME280;5282;47.052;15.458;2022-07-26T03:47:56;96993.97;;;23.91;70.91
10470;BME280;5282;47.052;15.458;2022-07-26T03:50:22;96987.38;;;23.87;69.24
10470;BME280;5282;47.052;15.458;2022-07-26T03:52:49;96987.38;;;23.87;69.81
10470;BME280;5282;47.052;15.458;2022-07-26T03:55:16;96983.50;;;23.83;70.37
10470;BME280;5282;47.052;15.458;2022-07-26T03:58:02;96977.44;;;23.81;71.35
10470;BME280;5282;47.052;15.458;2022-07-26T04:00:29;96981.28;;;23.80;72.54
10470;BME280;5282;47.052;15.458;2022-07-26T04:02:56;96983.50;;;23.83;71.88
10470;BME280;5282;47.052;15.458;2022-07-26T04:05:24;96992.56;;;23.83;70.62
10470;BME280;5282;47.052;15.458;2022-07-26T04:07:52;96990.75;;;23.99;72.79
10470;BME280;5282;47.052;15.458;2022-07-26T04:10:20;96996.72;;;23.86;70.33
10470;BME280;5282;47.052;15.458;2022-07-26T04:12:50;96993.41;;;23.84;70.90
10470;BME280;5282;47.052;15.458;2022-07-26T04:15:18;96998.63;;;23.80;70.79
10470;BME280;5282;47.052;15.458;2022-07-26T04:17:46;97002.50;;;23.90;71.21
10470;BME280;5282;47.052;15.458;2022-07-26T04:20:13;97008.00;;;23.90;70.64
10470;BME280;5282;47.052;15.458;2022-07-26T04:22:41;97008.28;;;23.93;71.65
10470;BME280;5282;47.052;15.458;2022-07-26T04:25:08;97021.47;;;23.91;72.96
10470;BME280;5282;47.052;15.458;2022-07-26T04:27:36;97023.34;;;23.85;71.12
10470;BME280;5282;47.052;15.458;2022-07-26T04:30:04;97026.16;;;23.91;72.35
10470;BME280;5282;47.052;15.458;2022-07-26T04:32:32;97043.03;;;24.05;71.03
10470;BME280;5282;47.052;15.458;2022-07-26T04:34:59;97039.69;;;23.97;70.98
10470;BME280;5282;47.052;15.458;2022-07-26T04:37:26;97038.94;;;24.12;72.03
10470;BME280;5282;47.052;15.458;2022-07-26T04:39:53;97055.69;;;24.11;71.91
10470;BME280;5282;47.052;15.458;2022-07-26T04:42:20;97056.53;;;24.16;70.96
10470;BME280;5282;47.052;15.458;2022-07-26T04:44:47;97068.66;;;24.21;72.21
10470;BME280;5282;47.052;15.458;2022-07-26T04:47:14;97072.25;;;24.21;70.67
10470;BME280;5282;47.052;15.458;2022-07-26T04:49:42;97081.03;;;24.18;70.01
10470;BME280;5282;47.052;15.458;2022-07-26T04:52:09;97083.50;;;24.19;72.30
10470;BME280;5282;47.052;15.458;2022-07-26T04:54:36;97087.13;;;24.25;71.42
10470;BME280;5282;47.052;15.458;2022-07-26T04:57:03;97094.03;;;24.33;73.49
10470;BME280;5282;47.052;15.458;2022-07-26T04:59:33;97104.22;;;24.32;69.20
10470;BME280;5282;47.052;15.458;2022-07-26T05:02:00;97109.72;;;24.32;69.91
10470;BME280;5282;47.052;15.458;2022-07-26T05:04:27;97114.97;;;24.39;70.41
10470;BME280;5282;47.052;15.458;2022-07-26T05:06:55;97121.31;;;24.40;68.41
10470;BME280;5282;47.052;15.458;2022-07-26T05:09:27;97136.72;;;24.46;69.04
10470;BME280;5282;47.052;15.458;2022-07-26T05:11:54;97139.94;;;24.27;69.39
10470;BME280;5282;47.052;15.458;2022-07-26T05:14:21;97146.81;;;24.30;70.96
10470;BME280;5282;47.052;15.458;2022-07-26T05:16:49;97141.94;;;24.37;71.05
10470;BME280;5282;47.052;15.458;2022-07-26T05:19:17;97140.03;;;24.43;70.73
10470;BME280;5282;47.052;15.458;2022-07-26T05:21:45;97147.16;;;24.39;68.22
10470;BME280;5282;47.052;15.458;2022-07-26T05:24:13;97157.06;;;24.45;69.78
10470;BME280;5282;47.052;15.458;2022-07-26T05:26:40;97160.91;;;24.39;69.44
10470;BME280;5282;47.052;15.458;2022-07-26T05:29:07;97163.66;;;24.39;70.57
10470;BME280;5282;47.052;15.458;2022-07-26T05:31:34;97170.81;;;24.40;71.30
10470;BME280;5282;47.052;15.458;2022-07-26T05:34:01;97165.09;;;24.46;72.08
10470;BME280;5282;47.052;15.458;2022-07-26T05:36:28;97164.16;;;24.30;69.93
10470;BME280;5282;47.052;15.458;2022-07-26T05:38:55;97162.28;;;24.41;67.02
10470;BME280;5282;47.052;15.458;2022-07-26T05:41:23;97170.28;;;24.43;70.87
10470;BME280;5282;47.052;15.458;2022-07-26T05:43:50;97167.56;;;24.48;66.80
10470;BME280;5282;47.052;15.458;2022-07-26T05:46:18;97162.84;;;24.43;67.42
10470;BME280;5282;47.052;15.458;2022-07-26T05:48:45;97151.28;;;24.41;70.55
10470;BME280;5282;47.052;15.458;2022-07-26T05:51:15;97140.84;;;24.38;68.72
10470;BME280;5282;47.052;15.458;2022-07-26T05:53:42;97146.50;;;24.21;72.34
10470;BME280;5282;47.052;15.458;2022-07-26T05:56:09;97137.41;;;24.15;70.96
10470;BME280;5282;47.052;15.458;2022-07-26T05:58:39;97145.66;;;24.15;70.88
10470;BME280;5282;47.052;15.458;2022-07-26T06:01:05;97147.06;;;24.23;74.26
10470;BME280;5282;47.052;15.458;2022-07-26T06:03:33;97151.47;;;24.24;72.63
10470;BME280;5282;47.052;15.458;2022-07-26T06:06:00;97149.00;;;24.23;75.12
10470;BME280;5282;47.052;15.458;2022-07-26T06:08:27;97143.19;;;24.19;78.47
10470;BME280;5282;47.052;15.458;2022-07-26T06:10:54;97143.22;;;24.24;75.46
10470;BME280;5282;47.052;15.458;2022-07-26T06:13:22;97144.25;;;24.13;73.97
10470;BME280;5282;47.052;15.458;2022-07-26T06:15:50;97143.19;;;24.19;72.96
10470;BME280;5282;47.052;15.458;2022-07-26T06:18:17;97147.00;;;24.13;73.28
10470;BME280;5282;47.052;15.458;2022-07-26T06:20:46;97153.00;;;24.05;72.03
10470;BME280;5282;47.052;15.458;2022-07-26T06:23:14;97158.53;;;24.10;72.32
10470;BME280;5282;47.052;15.458;2022-07-26T06:25:41;97158.56;;;24.15;72.29
10470;BME280;5282;47.052;15.458;2022-07-26T06:28:09;97166.50;;;24.11;73.39
10470;BME280;5282;47.052;15.458;2022-07-26T06:30:37;97160.16;;;24.11;74.38
10470;BME280;5282;47.052;15.458;2022-07-26T06:33:05;97170.31;;;24.05;74.70
10470;BME280;5282;47.052;15.458;2022-07-26T06:35:34;97166.47;;;24.06;70.13
10470;BME280;5282;47.052;15.458;2022-07-26T06:38:03;97159.59;;;24.03;71.11
10470;BME280;5282;47.052;15.458;2022-07-26T06:40:30;97167.13;;;23.86;76.58
10470;BME280;5282;47.052;15.458;2022-07-26T06:42:57;97170.34;;;23.78;69.36
10470;BME280;5282;47.052;15.458;2022-07-26T06:45:24;97170.19;;;23.95;67.39
10470;BME280;5282;47.052;15.458;2022-07-26T06:47:52;97172.13;;;23.94;61.57
10470;BME280;5282;47.052;15.458;2022-07-26T06:50:21;97176.34;;;24.02;61.64
10470;BME280;5282;47.052;15.458;2022-07-26T06:52:48;97176.66;;;24.11;61.16
10470;BME280;5282;47.052;15.458;2022-07-26T06:55:15;97178.00;;;24.03;67.28
10470;BME280;5282;47.052;15.458;2022-07-26T06:57:45;97177.50;;;24.11;63.44
10470;BME280;5282;47.052;15.458;2022-07-26T07:00:13;97175.47;;;23.96;61.04
10470;BME280;5282;47.052;15.458;2022-07-26T07:02:41;97168.78;;;23.87;61.58
10470;BME280;5282;47.052;15.458;2022-07-26T07:05:08;97165.56;;;23.95;61.27
10470;BME280;5282;47.052;15.458;2022-07-26T07:07:40;97164.91;;;23.88;60.06
10470;BME280;5282;47.052;15.458;2022-07-26T07:10:08;97171.06;;;23.95;63.56
10470;BME280;5282;47.052;15.458;2022-07-26T07:12:35;97167.72;;;23.93;62.96
10470;BME280;5282;47.052;15.458;2022-07-26T07:15:03;97164.50;;;24.01;63.18
10470;BME280;5282;47.052;15.458;2022-07-26T07:17:29;97160.38;;;23.99;61.94
10470;BME280;5282;47.052;15.458;2022-07-26T07:19:57;97160.09;;;24.00;62.28
10470;BME280;5282;47.052;15.458;2022-07-26T07:22:25;97156.25;;;23.96;60.46
10470;BME280;5282;47.052;15.458;2022-07-26T07:24:54;97163.69;;;24.01;61.12
10470;BME280;5282;47.052;15.458;2022-07-26T07:27:21;97168.66;;;24.04;60.97
10470;BME280;5282;47.052;15.458;2022-07-26T07:29:48;97171.72;;;24.08;59.20
10470;BME280;5282;47.052;15.458;2022-07-26T07:32:15;97175.03;;;24.10;59.72
10470;BME280;5282;47.052;15.458;2022-07-26T07:34:42;97175.56;;;24.07;58.85
10470;BME280;5282;47.052;15.458;2022-07-26T07:37:10;97178.56;;;24.05;60.28
10470;BME280;5282;47.052;15.458;2022-07-26T07:39:37;97181.06;;;24.12;59.32
10470;BME280;5282;47.052;15.458;2022-07-26T07:42:06;97191.47;;;24.05;60.41
10470;BME280;5282;47.052;15.458;2022-07-26T07:44:33;97179.16;;;24.12;62.36
10470;BME280;5282;47.052;15.458;2022-07-26T07:47:00;97195.41;;;24.14;62.32
10470;BME280;5282;47.052;15.458;2022-07-26T07:49:26;97194.03;;;24.16;63.60
10470;BME280;5282;47.052;15.458;2022-07-26T07:51:53;97203.00;;;24.01;61.97
10470;BME280;5282;47.052;15.458;2022-07-26T07:54:20;97205.50;;;24.03;62.71
10470;BME280;5282;47.052;15.458;2022-07-26T07:56:47;97204.44;;;24.09;61.47
10470;BME280;5282;47.052;15.458;2022-07-26T07:59:16;97209.16;;;24.14;62.17
10470;BME280;5282;47.052;15.458;2022-07-26T08:01:43;97209.22;;;24.24;63.79
10470;BME280;5282;47.052;15.458;2022-07-26T08:04:10;97218.38;;;23.97;62.41
10470;BME280;5282;47.052;15.458;2022-07-26T08:06:37;97213.53;;;24.10;63.49
10470;BME280;5282;47.052;15.458;2022-07-26T08:09:05;97219.25;;;24.03;66.18
10470;BME280;5282;47.052;15.458;2022-07-26T08:11:32;97217.22;;;23.93;63.03
10470;BME280;5282;47.052;15.458;2022-07-26T08:13:59;97213.38;;;23.94;67.24
10470;BME280;5282;47.052;15.458;2022-07-26T08:16:28;97218.78;;;23.84;62.16
10470;BME280;5282;47.052;15.458;2022-07-26T08:18:55;97225.09;;;23.84;62.18
10470;BME280;5282;47.052;15.458;2022-07-26T08:21:23;97224.56;;;23.87;61.73
10470;BME280;5282;47.052;15.458;2022-07-26T08:23:49;97228.09;;;23.83;61.43
10470;BME280;5282;47.052;15.458;2022-07-26T08:26:16;97233.09;;;23.86;62.27
10470;BME280;5282;47.052;15.458;2022-07-26T08:28:43;97229.78;;;23.84;64.18
10470;BME280;5282;47.052;15.458;2022-07-26T08:31:11;97237.72;;;23.80;65.41
10470;BME280;5282;47.052;15.458;2022-07-26T08:33:39;97236.09;;;23.84;66.51
10470;BME280;5282;47.052;15.458;2022-07-26T08:36:06;97243.75;;;23.82;67.16
10470;BME280;5282;47.052;15.458;2022-07-26T08:38:37;97249.53;;;23.81;65.84
10470;BME280;5282;47.052;15.458;2022-07-26T08:41:04;97247.88;;;23.80;65.46
10470;BME280;5282;47.052;15.458;2022-07-26T08:43:31;97252.88;;;23.88;67.20
10470;BME280;5282;47.052;15.458;2022-07-26T08:45:59;97254.03;;;23.92;63.43
10470;BME280;5282;47.052;15.458;2022-07-26T08:48:27;97255.00;;;24.03;66.01
10470;BME280;5282;47.052;15.458;2022-07-26T08:50:55;97257.25;;;24.11;68.51
10470;BME280;5282;47.052;15.458;2022-07-26T08:53:22;97260.91;;;24.22;68.19
10470;BME280;5282;47.052;15.458;2022-07-26T08:55:55;97263.13;;;24.25;66.17
10470;BME280;5282;47.052;15.458;2022-07-26T08:58:26;97270.88;;;24.33;64.09
10470;BME280;5282;47.052;15.458;2022-07-26T09:01:06;97263.25;;;24.41;63.74
10470;BME280;5282;47.052;15.458;2022-07-26T09:03:34;97266.31;;;24.44;68.33
10470;BME280;5282;47.052;15.458;2022-07-26T09:06:14;97273.69;;;24.39;67.09
10470;BME280;5282;47.052;15.458;2022-07-26T09:08:43;97284.47;;;24.45;66.54
10470;BME280;5282;47.052;15.458;2022-07-26T09:11:29;97289.75;;;24.52;68.87
10470;BME280;5282;47.052;15.458;2022-07-26T09:13:59;97296.72;;;24.27;66.96
10470;BME280;5282;47.052;15.458;2022-07-26T09:16:31;97302.06;;;24.12;71.58
10470;BME280;5282;47.052;15.458;2022-07-26T09:19:14;97304.78;;;24.07;72.62
10470;BME280;5282;47.052;15.458;2022-07-26T09:21:45;97301.03;;;24.18;68.39
10470;BME280;5282;47.052;15.458;2022-07-26T09:24:29;97302.91;;;24.12;72.69
10470;BME280;5282;47.052;15.458;2022-07-26T09:26:59;97296.63;;;24.17;70.24
10470;BME280;5282;47.052;15.458;2022-07-26T09:29:26;97299.97;;;24.24;70.05
10470;BME280;5282;47.052;15.458;2022-07-26T09:32:08;97307.44;;;24.29;71.21
10470;BME280;5282;47.052;15.458;2022-07-26T09:34:36;97304.31;;;24.53;70.88
10470;BME280;5282;47.052;15.458;2022-07-26T09:37:04;97304.72;;;24.67;71.48
10470;BME280;5282;47.052;15.458;2022-07-26T09:39:52;97312.00;;;24.78;71.27
10470;BME280;5282;47.052;15.458;2022-07-26T09:42:21;97307.34;;;24.84;68.82
10470;BME280;5282;47.052;15.458;2022-07-26T09:44:48;97306.84;;;24.97;70.96
10470;BME280;5282;47.052;15.458;2022-07-26T09:47:15;97319.00;;;25.01;72.84
10470;BME280;5282;47.052;15.458;2022-07-26T09:49:43;97318.19;;;25.06;76.78
10470;BME280;5282;47.052;15.458;2022-07-26T09:52:16;97319.38;;;25.25;75.46
10470;BME280;5282;47.052;15.458;2022-07-26T09:54:44;97323.31;;;25.35;77.59
10470;BME280;5282;47.052;15.458;2022-07-26T09:57:16;97320.88;;;25.44;77.17
10470;BME280;5282;47.052;15.458;2022-07-26T09:59:44;97324.78;;;25.05;73.43
10470;BME280;5282;47.052;15.458;2022-07-26T10:02:12;97338.19;;;25.39;73.90
10470;BME280;5282;47.052;15.458;2022-07-26T10:04:40;97342.44;;;25.52;72.41
10470;BME280;5282;47.052;15.458;2022-07-26T10:07:08;97348.19;;;25.50;71.23
10470;BME280;5282;47.052;15.458;2022-07-26T10:09:44;97341.00;;;25.49;69.66
10470;BME280;5282;47.052;15.458;2022-07-26T10:12:15;97340.94;;;25.39;68.08
10470;BME280;5282;47.052;15.458;2022-07-26T10:14:44;97344.25;;;25.36;69.94
10470;BME280;5282;47.052;15.458;2022-07-26T10:17:45;97340.38;;;25.32;72.09
10470;BME280;5282;47.052;15.458;2022-07-26T10:20:47;97349.44;;;25.32;71.95
10470;BME280;5282;47.052;15.458;2022-07-26T10:23:38;97349.84;;;25.03;72.71
10470;BME280;5282;47.052;15.458;2022-07-26T10:26:08;97344.50;;;25.29;71.62
10470;BME280;5282;47.052;15.458;2022-07-26T10:28:38;97346.44;;;25.34;70.08
10470;BME280;5282;47.052;15.458;2022-07-26T10:31:28;97338.75;;;25.36;71.58
10470;BME280;5282;47.052;15.458;2022-07-26T10:33:57;97336.28;;;25.39;71.58
10470;BME280;5282;47.052;15.458;2022-07-26T10:36:31;97341.78;;;25.39;73.17
10470;BME280;5282;47.052;15.458;2022-07-26T10:39:04;97332.91;;;25.32;74.33
10470;BME280;5282;47.052;15.458;2022-07-26T10:41:34;97329.63;;;25.35;74.91
10470;BME280;5282;47.052;15.458;2022-07-26T10:44:22;97326.94;;;25.46;71.79
10470;BME280;5282;47.052;15.458;2022-07-26T10:47:01;97323.84;;;25.32;72.85
10470;BME280;5282;47.052;15.458;2022-07-26T10:49:30;97328.44;;;25.16;70.92
10470;BME280;5282;47.052;15.458;2022-07-26T10:52:08;97319.91;;;25.12;73.43
10470;BME280;5282;47.052;15.458;2022-07-26T10:55:09;97310.72;;;25.54;72.98
10470;BME280;5282;47.052;15.458;2022-07-26T10:57:39;97316.03;;;25.71;66.83
10470;BME280;5282;47.052;15.458;2022-07-26T11:00:18;97310.53;;;25.82;66.72
10470;BME280;5282;47.052;15.458;2022-07-26T11:02:51;97309.47;;;25.88;68.44
10470;BME280;5282;47.052;15.458;2022-07-26T11:05:21;97310.28;;;25.88;68.45
10470;BME280;5282;47.052;15.458;2022-07-26T11:07:54;97318.56;;;25.99;70.82
10470;BME280;5282;47.052;15.458;2022-07-26T11:10:24;97320.19;;;25.95;64.98
10470;BME280;5282;47.052;15.458;2022-07-26T11:13:08;97314.16;;;26.08;65.15
10470;BME280;5282;47.052;15.458;2022-07-26T11:15:38;97312.53;;;26.17;67.21
10470;BME280;5282;47.052;15.458;2022-07-26T11:18:13;97312.25;;;26.14;67.26
10470;BME280;5282;47.052;15.458;2022-07-26T11:20:42;97315.59;;;26.16;67.37
10470;BME280;5282;47.052;15.458;2022-07-26T11:23:34;97312.00;;;26.36;66.47
10470;BME280;5282;47.052;15.458;2022-07-26T11:26:04;97312.56;;;26.48;63.81
10470;BME280;5282;47.052;15.458;2022-07-26T11:29:00;97315.31;;;26.48;61.60
10470;BME280;5282;47.052;15.458;2022-07-26T11:31:34;97315.59;;;26.57;59.46
10470;BME280;5282;47.052;15.458;2022-07-26T11:34:01;97320.28;;;26.26;59.04
10470;BME280;5282;47.052;15.458;2022-07-26T11:36:38;97327.19;;;26.49;61.67
10470;BME280;5282;47.052;15.458;2022-07-26T11:39:07;97324.72;;;26.58;59.16
10470;BME280;5282;47.052;15.458;2022-07-26T11:41:34;97320.84;;;26.85;59.00
10470;BME280;5282;47.052;15.458;2022-07-26T11:44:03;97324.72;;;26.84;57.84
10470;BME280;5282;47.052;15.458;2022-07-26T11:46:32;97321.03;;;27.19;58.05
10470;BME280;5282;47.052;15.458;2022-07-26T11:49:00;97327.91;;;27.27;56.16
10470;BME280;5282;47.052;15.458;2022-07-26T11:51:28;97316.66;;;26.98;55.83
10470;BME280;5282;47.052;15.458;2022-07-26T11:53:55;97325.41;;;27.31;55.61
10470;BME280;5282;47.052;15.458;2022-07-26T11:56:26;97317.09;;;27.46;51.99
10470;BME280;5282;47.052;15.458;2022-07-26T11:58:57;97310.19;;;27.44;51.75
10470;BME280;5282;47.052;15.458;2022-07-26T12:01:27;97311.28;;;27.53;54.35
10470;BME280;5282;47.052;15.458;2022-07-26T12:03:55;97307.91;;;27.56;50.55
10470;BME280;5282;47.052;15.458;2022-07-26T12:06:24;97304.53;;;27.75;50.93
10470;BME280;5282;47.052;15.458;2022-07-26T12:08:53;97302.91;;;28.13;51.88
10470;BME280;5282;47.052;15.458;2022-07-26T12:11:21;97302.06;;;28.18;48.45
10470;BME280;5282;47.052;15.458;2022-07-26T12:13:59;97297.88;;;28.21;46.86
10470;BME280;5282;47.052;15.458;2022-07-26T12:16:40;97285.69;;;28.56;46.33
10470;BME280;5282;47.052;15.458;2022-07-26T12:19:20;97291.00;;;28.53;47.04
10470;BME280;5282;47.052;15.458;2022-07-26T12:21:50;97290.81;;;28.73;49.77
10470;BME280;5282;47.052;15.458;2022-07-26T12:24:38;97287.03;;;28.29;48.57
10470;BME280;5282;47.052;15.458;2022-07-26T12:27:07;97296.91;;;28.41;50.25
10470;BME280;5282;47.052;15.458;2022-07-26T12:29:38;97291.88;;;28.77;48.25
10470;BME280;5282;47.052;15.458;2022-07-26T12:32:10;97291.06;;;28.77;47.87
10470;BME280;5282;47.052;15.458;2022-07-26T12:34:39;97288.63;;;28.65;49.48
10470;BME280;5282;47.052;15.458;2022-07-26T12:37:16;97288.34;;;28.72;45.73
10470;BME280;5282;47.052;15.458;2022-07-26T12:39:58;97289.38;;;28.81;46.69
10470;BME280;5282;47.052;15.458;2022-07-26T12:42:28;97289.91;;;28.48;48.11
10470;BME280;5282;47.052;15.458;2022-07-26T12:44:56;97288.56;;;28.46;46.74
10470;BME280;5282;47.052;15.458;2022-07-26T12:47:25;97272.78;;;28.76;45.48
10470;BME280;5282;47.052;15.458;2022-07-26T12:49:53;97271.91;;;29.05;45.15
10470;BME280;5282;47.052;15.458;2022-07-26T12:52:21;97268.56;;;28.84;43.97
10470;BME280;5282;47.052;15.458;2022-07-26T12:54:50;97264.59;;;28.90;45.10
10470;BME280;5282;47.052;15.458;2022-07-26T12:57:19;97272.28;;;29.22;45.24
10470;BME280;5282;47.052;15.458;2022-07-26T12:59:47;97271.06;;;29.34;43.38
10470;BME280;5282;47.052;15.458;2022-07-26T13:02:17;97256.31;;;29.38;44.56
10470;BME280;5282;47.052;15.458;2022-07-26T13:04:46;97263.84;;;29.33;42.21
10470;BME280;5282;47.052;15.458;2022-07-26T13:07:14;97248.41;;;29.27;42.22
10470;BME280;5282;47.052;15.458;2022-07-26T13:09:41;97257.69;;;29.12;41.05
10470;BME280;5282;47.052;15.458;2022-07-26T13:12:11;97251.97;;;29.51;41.30